Terminal Aerodrome Forecast
Issued by NWS Flagstaff, AZ

Home | Current Version | Previous Version | Text Only | Print | Product List | Glossary On
Versions: 1 2 3 4 5 6 7 8 9 10 11 12 13 14
000
FTUS45 KFGZ 271700 RRA
TAFINW
TAF
KINW 271743Z 2718/2818 VRB06KT P6SM BKN090
     FM272000 23012G22KT P6SM SCT070 OVC090
     FM280200 22010KT P6SM VCSH SCT080 BKN090=

USA.gov is the U.S. government's official web portal to all federal, state and local government web resources and services.